sensor_id;sensor_type;location;lat;lon;timestamp;pressure;altitude;pressure_sealevel;temperature;humidity
55590;BME280;41452;42.780;23.116;2023-04-02T00:02:33;93502.47;;;4.25;100.00
55590;BME280;41452;42.780;23.116;2023-04-02T00:07:58;93508.50;;;4.19;100.00
55590;BME280;41452;42.780;23.116;2023-04-02T00:10:47;93497.09;;;4.20;100.00
55590;BME280;41452;42.780;23.116;2023-04-02T00:15:41;93507.81;;;4.30;100.00
55590;BME280;41452;42.780;23.116;2023-04-02T00:18:12;93512.94;;;4.37;100.00
55590;BME280;41452;42.780;23.116;2023-04-02T00:20:41;93497.06;;;4.27;100.00
55590;BME280;41452;42.780;23.116;2023-04-02T00:23:11;93501.97;;;4.35;100.00
55590;BME280;41452;42.780;23.116;2023-04-02T00:25:38;93494.63;;;4.32;100.00
55590;BME280;41452;42.780;23.116;2023-04-02T00:28:15;93496.03;;;4.28;100.00
55590;BME280;41452;42.780;23.116;2023-04-02T00:30:46;93488.19;;;4.34;100.00
55590;BME280;41452;42.780;23.116;2023-04-02T00:33:15;93485.84;;;4.26;100.00
55590;BME280;41452;42.780;23.116;2023-04-02T00:35:42;93501.41;;;4.33;100.00
55590;BME280;41452;42.780;23.116;2023-04-02T00:38:18;93491.78;;;4.33;100.00
55590;BME280;41452;42.780;23.116;2023-04-02T00:40:45;93498.16;;;4.37;100.00
55590;BME280;41452;42.780;23.116;2023-04-02T00:43:13;93463.16;;;4.15;100.00
55590;BME280;41452;42.780;23.116;2023-04-02T00:45:42;93450.16;;;4.15;100.00
55590;BME280;41452;42.780;23.116;2023-04-02T00:51:21;93487.81;;;4.31;100.00
55590;BME280;41452;42.780;23.116;2023-04-02T00:53:49;93478.50;;;4.23;100.00
55590;BME280;41452;42.780;23.116;2023-04-02T00:56:24;93497.97;;;4.39;100.00
55590;BME280;41452;42.780;23.116;2023-04-02T00:58:54;93475.06;;;4.23;100.00
55590;BME280;41452;42.780;23.116;2023-04-02T01:01:26;93502.13;;;4.40;100.00
55590;BME280;41452;42.780;23.116;2023-04-02T01:03:54;93499.91;;;4.18;100.00
55590;BME280;41452;42.780;23.116;2023-04-02T01:06:24;93478.41;;;4.05;100.00
55590;BME280;41452;42.780;23.116;2023-04-02T01:17:41;93501.19;;;4.09;100.00
55590;BME280;41452;42.780;23.116;2023-04-02T01:23:29;93512.47;;;4.22;100.00
55590;BME280;41452;42.780;23.116;2023-04-02T01:26:04;93512.66;;;4.27;100.00
55590;BME280;41452;42.780;23.116;2023-04-02T01:29:11;93517.56;;;4.35;100.00
55590;BME280;41452;42.780;23.116;2023-04-02T01:31:38;93511.78;;;4.33;100.00
55590;BME280;41452;42.780;23.116;2023-04-02T01:34:07;93495.78;;;4.36;100.00
55590;BME280;41452;42.780;23.116;2023-04-02T01:36:35;93512.44;;;4.53;100.00
55590;BME280;41452;42.780;23.116;2023-04-02T01:42:12;93511.63;;;4.53;100.00
55590;BME280;41452;42.780;23.116;2023-04-02T01:44:50;93516.34;;;4.63;100.00
55590;BME280;41452;42.780;23.116;2023-04-02T01:47:19;93495.06;;;4.47;100.00
55590;BME280;41452;42.780;23.116;2023-04-02T01:49:46;93504.47;;;4.48;100.00
55590;BME280;41452;42.780;23.116;2023-04-02T01:52:17;93508.13;;;4.66;100.00
55590;BME280;41452;42.780;23.116;2023-04-02T01:54:50;93508.13;;;4.66;100.00
55590;BME280;41452;42.780;23.116;2023-04-02T01:57:17;93482.53;;;4.44;100.00
55590;BME280;41452;42.780;23.116;2023-04-02T01:59:43;93510.38;;;4.62;100.00
55590;BME280;41452;42.780;23.116;2023-04-02T02:02:13;93481.66;;;4.50;100.00
55590;BME280;41452;42.780;23.116;2023-04-02T02:04:39;93502.19;;;4.59;100.00
55590;BME280;41452;42.780;23.116;2023-04-02T02:07:12;93507.56;;;4.64;100.00
55590;BME280;41452;42.780;23.116;2023-04-02T02:09:39;93507.81;;;4.55;100.00
55590;BME280;41452;42.780;23.116;2023-04-02T02:12:05;93506.06;;;4.49;100.00
55590;BME280;41452;42.780;23.116;2023-04-02T02:14:31;93486.22;;;4.30;100.00
55590;BME280;41452;42.780;23.116;2023-04-02T02:16:59;93483.47;;;4.25;100.00
55590;BME280;41452;42.780;23.116;2023-04-02T02:19:37;93491.78;;;4.33;100.00
55590;BME280;41452;42.780;23.116;2023-04-02T02:22:10;93486.66;;;4.27;100.00
55590;BME280;41452;42.780;23.116;2023-04-02T02:24:37;93468.84;;;4.05;100.00
55590;BME280;41452;42.780;23.116;2023-04-02T02:29:41;93490.75;;;4.16;100.00
55590;BME280;41452;42.780;23.116;2023-04-02T02:32:09;93479.84;;;4.00;100.00
55590;BME280;41452;42.780;23.116;2023-04-02T02:34:40;93484.72;;;4.15;100.00
55590;BME280;41452;42.780;23.116;2023-04-02T02:37:22;93499.53;;;4.15;100.00
55590;BME280;41452;42.780;23.116;2023-04-02T02:39:54;93492.97;;;4.12;100.00
55590;BME280;41452;42.780;23.116;2023-04-02T02:42:39;93502.16;;;4.08;100.00
55590;BME280;41452;42.780;23.116;2023-04-02T02:45:12;93496.94;;;4.15;100.00
55590;BME280;41452;42.780;23.116;2023-04-02T02:47:41;93486.00;;;4.06;100.00
55590;BME280;41452;42.780;23.116;2023-04-02T02:50:15;93481.75;;;4.12;100.00
55590;BME280;41452;42.780;23.116;2023-04-02T02:52:46;93508.03;;;4.29;100.00
55590;BME280;41452;42.780;23.116;2023-04-02T02:55:17;93493.63;;;4.26;100.00
55590;BME280;41452;42.780;23.116;2023-04-02T02:57:48;93500.06;;;4.24;100.00
55590;BME280;41452;42.780;23.116;2023-04-02T03:00:15;93503.81;;;4.28;100.00
55590;BME280;41452;42.780;23.116;2023-04-02T03:02:43;93492.91;;;4.19;100.00
55590;BME280;41452;42.780;23.116;2023-04-02T03:05:19;93499.66;;;4.27;100.00
55590;BME280;41452;42.780;23.116;2023-04-02T03:07:46;93499.81;;;4.32;100.00
55590;BME280;41452;42.780;23.116;2023-04-02T03:10:21;93510.16;;;4.38;100.00
55590;BME280;41452;42.780;23.116;2023-04-02T03:12:53;93512.38;;;4.35;100.00
55590;BME280;41452;42.780;23.116;2023-04-02T03:18:06;93512.38;;;4.35;100.00
55590;BME280;41452;42.780;23.116;2023-04-02T03:20:37;93503.81;;;4.28;100.00
55590;BME280;41452;42.780;23.116;2023-04-02T03:23:15;93484.09;;;4.20;100.00
55590;BME280;41452;42.780;23.116;2023-04-02T03:26:01;93499.00;;;4.31;100.00
55590;BME280;41452;42.780;23.116;2023-04-02T03:28:31;93495.44;;;4.26;100.00
55590;BME280;41452;42.780;23.116;2023-04-02T03:30:59;93500.81;;;4.31;100.00
55590;BME280;41452;42.780;23.116;2023-04-02T03:33:31;93500.66;;;4.26;100.00
55590;BME280;41452;42.780;23.116;2023-04-02T03:38:49;93482.41;;;4.07;100.00
55590;BME280;41452;42.780;23.116;2023-04-02T03:41:20;93507.13;;;4.16;100.00
55590;BME280;41452;42.780;23.116;2023-04-02T03:43:51;93463.34;;;3.88;100.00
55590;BME280;41452;42.780;23.116;2023-04-02T03:46:33;93509.31;;;4.19;100.00
55590;BME280;41452;42.780;23.116;2023-04-02T03:49:11;93494.38;;;4.08;100.00
55590;BME280;41452;42.780;23.116;2023-04-02T03:54:31;93493.59;;;4.08;100.00
55590;BME280;41452;42.780;23.116;2023-04-02T03:56:56;93511.56;;;4.09;100.00
55590;BME280;41452;42.780;23.116;2023-04-02T04:02:46;93513.63;;;4.00;100.00
55590;BME280;41452;42.780;23.116;2023-04-02T04:05:34;93490.91;;;3.89;100.00
55590;BME280;41452;42.780;23.116;2023-04-02T04:08:05;93475.03;;;3.72;100.00
55590;BME280;41452;42.780;23.116;2023-04-02T04:10:33;93482.53;;;3.87;100.00
55590;BME280;41452;42.780;23.116;2023-04-02T04:13:08;93503.25;;;3.94;100.00
55590;BME280;41452;42.780;23.116;2023-04-02T04:15:40;93519.19;;;4.04;100.00
55590;BME280;41452;42.780;23.116;2023-04-02T04:21:17;93508.63;;;3.99;100.00
55590;BME280;41452;42.780;23.116;2023-04-02T04:23:54;93525.56;;;4.08;100.00
55590;BME280;41452;42.780;23.116;2023-04-02T04:26:51;93526.75;;;4.12;100.00
55590;BME280;41452;42.780;23.116;2023-04-02T04:32:29;93520.34;;;4.08;100.00
55590;BME280;41452;42.780;23.116;2023-04-02T04:35:03;93509.78;;;4.03;100.00
55590;BME280;41452;42.780;23.116;2023-04-02T04:37:36;93497.81;;;4.02;100.00
55590;BME280;41452;42.780;23.116;2023-04-02T04:40:15;93525.66;;;4.27;100.00
55590;BME280;41452;42.780;23.116;2023-04-02T04:42:45;93513.16;;;4.10;100.00
55590;BME280;41452;42.780;23.116;2023-04-02T04:47:49;93529.44;;;4.24;100.00
55590;BME280;41452;42.780;23.116;2023-04-02T04:52:54;93533.84;;;4.24;100.00
55590;BME280;41452;42.780;23.116;2023-04-02T04:55:36;93532.25;;;4.23;100.00
55590;BME280;41452;42.780;23.116;2023-04-02T04:58:23;93525.91;;;4.18;100.00
55590;BME280;41452;42.780;23.116;2023-04-02T05:01:02;93539.44;;;4.27;100.00
55590;BME280;41452;42.780;23.116;2023-04-02T05:03:35;93518.56;;;4.09;100.00
55590;BME280;41452;42.780;23.116;2023-04-02T05:06:10;93526.69;;;4.19;100.00
55590;BME280;41452;42.780;23.116;2023-04-02T05:08:42;93520.63;;;4.32;100.00
55590;BME280;41452;42.780;23.116;2023-04-02T05:11:18;93527.22;;;4.53;100.00
55590;BME280;41452;42.780;23.116;2023-04-02T05:13:59;93533.69;;;4.69;100.00
55590;BME280;41452;42.780;23.116;2023-04-02T05:16:30;93535.41;;;4.82;100.00
55590;BME280;41452;42.780;23.116;2023-04-02T05:21:27;93527.56;;;5.07;100.00
55590;BME280;41452;42.780;23.116;2023-04-02T05:27:08;93542.97;;;5.27;100.00
55590;BME280;41452;42.780;23.116;2023-04-02T05:29:40;93545.88;;;5.37;100.00
55590;BME280;41452;42.780;23.116;2023-04-02T05:32:18;93548.25;;;5.39;100.00
55590;BME280;41452;42.780;23.116;2023-04-02T05:34:49;93531.34;;;5.29;100.00
55590;BME280;41452;42.780;23.116;2023-04-02T05:37:19;93554.75;;;5.48;100.00
55590;BME280;41452;42.780;23.116;2023-04-02T05:39:51;93522.44;;;5.37;100.00
55590;BME280;41452;42.780;23.116;2023-04-02T05:42:23;93551.56;;;5.64;100.00
55590;BME280;41452;42.780;23.116;2023-04-02T05:47:32;93551.44;;;5.89;100.00
55590;BME280;41452;42.780;23.116;2023-04-02T05:52:42;93538.31;;;6.15;100.00
55590;BME280;41452;42.780;23.116;2023-04-02T05:57:51;93514.09;;;6.26;100.00
55590;BME280;41452;42.780;23.116;2023-04-02T06:00:38;93546.03;;;6.63;97.26
55590;BME280;41452;42.780;23.116;2023-04-02T06:03:45;93550.78;;;6.78;94.78
55590;BME280;41452;42.780;23.116;2023-04-02T06:09:29;93542.50;;;7.05;97.92
55590;BME280;41452;42.780;23.116;2023-04-02T06:12:01;93572.69;;;7.48;99.82
55590;BME280;41452;42.780;23.116;2023-04-02T06:14:28;93565.91;;;7.23;100.00
55590;BME280;41452;42.780;23.116;2023-04-02T06:16:54;93548.63;;;7.46;91.93
55590;BME280;41452;42.780;23.116;2023-04-02T06:19:25;93575.50;;;7.70;96.17
55590;BME280;41452;42.780;23.116;2023-04-02T06:21:58;93557.88;;;7.66;90.98
55590;BME280;41452;42.780;23.116;2023-04-02T06:24:26;93554.78;;;7.80;90.15
55590;BME280;41452;42.780;23.116;2023-04-02T06:27:01;93580.94;;;8.09;91.02
55590;BME280;41452;42.780;23.116;2023-04-02T06:29:34;93552.00;;;7.99;87.29
55590;BME280;41452;42.780;23.116;2023-04-02T06:32:08;93582.03;;;8.25;85.76
55590;BME280;41452;42.780;23.116;2023-04-02T06:34:36;93579.72;;;8.29;90.12
55590;BME280;41452;42.780;23.116;2023-04-02T06:37:14;93575.72;;;8.38;93.48
55590;BME280;41452;42.780;23.116;2023-04-02T06:39:43;93571.56;;;8.25;98.20
55590;BME280;41452;42.780;23.116;2023-04-02T06:42:24;93578.09;;;8.40;91.94
55590;BME280;41452;42.780;23.116;2023-04-02T06:44:51;93581.25;;;8.42;91.15
55590;BME280;41452;42.780;23.116;2023-04-02T06:47:41;93579.09;;;8.50;85.85
55590;BME280;41452;42.780;23.116;2023-04-02T06:50:14;93565.78;;;8.52;84.09
55590;BME280;41452;42.780;23.116;2023-04-02T06:52:52;93579.75;;;8.74;82.60
55590;BME280;41452;42.780;23.116;2023-04-02T06:57:47;93593.88;;;9.07;82.78
55590;BME280;41452;42.780;23.116;2023-04-02T07:00:32;93557.06;;;8.97;83.18
55590;BME280;41452;42.780;23.116;2023-04-02T07:03:00;93577.38;;;9.24;83.15
55590;BME280;41452;42.780;23.116;2023-04-02T07:05:26;93603.84;;;9.44;81.32
55590;BME280;41452;42.780;23.116;2023-04-02T07:07:52;93580.19;;;9.39;80.92
55590;BME280;41452;42.780;23.116;2023-04-02T07:10:17;93596.59;;;9.51;79.18
55590;BME280;41452;42.780;23.116;2023-04-02T07:12:45;93597.03;;;9.43;77.32
55590;BME280;41452;42.780;23.116;2023-04-02T07:15:15;93606.53;;;9.66;81.63
55590;BME280;41452;42.780;23.116;2023-04-02T07:17:41;93586.81;;;9.64;80.00
55590;BME280;41452;42.780;23.116;2023-04-02T07:20:23;93603.38;;;9.86;76.55
55590;BME280;41452;42.780;23.116;2023-04-02T07:22:48;93612.16;;;9.97;78.67
55590;BME280;41452;42.780;23.116;2023-04-02T07:25:14;93600.44;;;10.05;76.81
55590;BME280;41452;42.780;23.116;2023-04-02T07:27:39;93609.44;;;10.14;75.50
55590;BME280;41452;42.780;23.116;2023-04-02T07:30:07;93595.13;;;10.00;73.49
55590;BME280;41452;42.780;23.116;2023-04-02T07:32:33;93620.50;;;10.16;73.33
55590;BME280;41452;42.780;23.116;2023-04-02T07:34:58;93622.22;;;10.27;75.41
55590;BME280;41452;42.780;23.116;2023-04-02T07:37:24;93608.00;;;10.23;73.51
55590;BME280;41452;42.780;23.116;2023-04-02T07:39:49;93618.69;;;10.39;77.51
55590;BME280;41452;42.780;23.116;2023-04-02T07:42:15;93618.91;;;10.37;71.92
55590;BME280;41452;42.780;23.116;2023-04-02T07:44:40;93605.16;;;10.30;71.53
55590;BME280;41452;42.780;23.116;2023-04-02T07:47:05;93614.47;;;10.38;74.43
55590;BME280;41452;42.780;23.116;2023-04-02T07:49:32;93622.66;;;10.41;73.25
55590;BME280;41452;42.780;23.116;2023-04-02T07:51:57;93624.63;;;10.56;75.55
55590;BME280;41452;42.780;23.116;2023-04-02T07:54:23;93623.38;;;10.64;74.02
55590;BME280;41452;42.780;23.116;2023-04-02T07:56:48;93623.66;;;10.62;73.09
55590;BME280;41452;42.780;23.116;2023-04-02T07:59:14;93620.63;;;10.76;75.54
55590;BME280;41452;42.780;23.116;2023-04-02T08:01:39;93613.81;;;10.80;71.89
55590;BME280;41452;42.780;23.116;2023-04-02T08:04:16;93624.44;;;10.90;71.09
55590;BME280;41452;42.780;23.116;2023-04-02T08:06:42;93604.97;;;10.86;74.21
55590;BME280;41452;42.780;23.116;2023-04-02T08:09:07;93611.78;;;10.87;72.06
55590;BME280;41452;42.780;23.116;2023-04-02T08:11:32;93637.94;;;11.04;70.29
55590;BME280;41452;42.780;23.116;2023-04-02T08:13:58;93575.47;;;10.79;71.48
55590;BME280;41452;42.780;23.116;2023-04-02T08:16:23;93632.59;;;11.21;72.60
55590;BME280;41452;42.780;23.116;2023-04-02T08:18:49;93624.41;;;11.17;70.68
55590;BME280;41452;42.780;23.116;2023-04-02T08:21:15;93644.31;;;11.13;69.38
55590;BME280;41452;42.780;23.116;2023-04-02T08:23:40;93626.75;;;11.19;73.03
55590;BME280;41452;42.780;23.116;2023-04-02T08:26:08;93632.69;;;11.36;70.56
55590;BME280;41452;42.780;23.116;2023-04-02T08:28:34;93613.69;;;11.29;71.77
55590;BME280;41452;42.780;23.116;2023-04-02T08:30:59;93637.28;;;11.51;71.21
55590;BME280;41452;42.780;23.116;2023-04-02T08:33:25;93626.47;;;11.48;70.23
55590;BME280;41452;42.780;23.116;2023-04-02T08:35:51;93627.22;;;11.43;68.54
55590;BME280;41452;42.780;23.116;2023-04-02T08:38:18;93616.53;;;11.55;71.77
55590;BME280;41452;42.780;23.116;2023-04-02T08:40:47;93628.72;;;11.71;69.76
55590;BME280;41452;42.780;23.116;2023-04-02T08:48:23;93625.72;;;12.00;67.16
55590;BME280;41452;42.780;23.116;2023-04-02T08:50:49;93609.81;;;11.85;67.46
55590;BME280;41452;42.780;23.116;2023-04-02T08:53:24;93637.84;;;12.01;70.55
55590;BME280;41452;42.780;23.116;2023-04-02T08:56:10;93635.22;;;12.01;69.24
55590;BME280;41452;42.780;23.116;2023-04-02T09:03:54;93622.44;;;11.83;70.88
55590;BME280;41452;42.780;23.116;2023-04-02T09:06:22;93641.75;;;11.98;68.76
55590;BME280;41452;42.780;23.116;2023-04-02T09:08:50;93642.00;;;11.97;66.32
55590;BME280;41452;42.780;23.116;2023-04-02T09:12:12;93643.63;;;11.98;67.53
55590;BME280;41452;42.780;23.116;2023-04-02T09:14:41;93629.31;;;11.84;66.99
55590;BME280;41452;42.780;23.116;2023-04-02T09:17:22;93647.28;;;11.97;65.46
55590;BME280;41452;42.780;23.116;2023-04-02T09:19:55;93648.09;;;11.97;67.54
55590;BME280;41452;42.780;23.116;2023-04-02T09:22:31;93630.44;;;11.93;70.27
55590;BME280;41452;42.780;23.116;2023-04-02T09:25:02;93658.41;;;12.14;67.62
55590;BME280;41452;42.780;23.116;2023-04-02T09:27:32;93639.50;;;12.23;68.51
55590;BME280;41452;42.780;23.116;2023-04-02T09:32:53;93638.47;;;12.29;63.93
55590;BME280;41452;42.780;23.116;2023-04-02T09:35:20;93644.22;;;12.15;64.17
55590;BME280;41452;42.780;23.116;2023-04-02T09:37:46;93619.44;;;12.11;65.07
55590;BME280;41452;42.780;23.116;2023-04-02T09:42:41;93629.91;;;11.91;64.64
55590;BME280;41452;42.780;23.116;2023-04-02T09:45:19;93629.41;;;12.04;66.33
55590;BME280;41452;42.780;23.116;2023-04-02T09:47:45;93623.47;;;12.24;65.61
55590;BME280;41452;42.780;23.116;2023-04-02T09:52:45;93627.22;;;12.54;65.66
55590;BME280;41452;42.780;23.116;2023-04-02T09:57:39;93621.97;;;12.59;62.55
55590;BME280;41452;42.780;23.116;2023-04-02T10:00:09;93617.75;;;12.53;64.78
55590;BME280;41452;42.780;23.116;2023-04-02T10:02:41;93617.53;;;12.60;64.20
55590;BME280;41452;42.780;23.116;2023-04-02T10:05:18;93611.44;;;12.59;62.65
55590;BME280;41452;42.780;23.116;2023-04-02T10:07:47;93615.94;;;12.59;66.04
55590;BME280;41452;42.780;23.116;2023-04-02T10:10:28;93618.88;;;12.83;64.17
55590;BME280;41452;42.780;23.116;2023-04-02T10:15:49;93620.41;;;12.68;65.20
55590;BME280;41452;42.780;23.116;2023-04-02T10:21:22;93614.06;;;12.59;61.03
55590;BME280;41452;42.780;23.116;2023-04-02T10:23:49;93619.38;;;12.74;61.14
55590;BME280;41452;42.780;23.116;2023-04-02T10:35:03;93586.47;;;12.87;59.64
55590;BME280;41452;42.780;23.116;2023-04-02T10:45:41;93613.84;;;12.91;59.24
55590;BME280;41452;42.780;23.116;2023-04-02T10:53:19;93568.56;;;12.79;59.10
55590;BME280;41452;42.780;23.116;2023-04-02T10:55:51;93582.25;;;13.07;61.03
55590;BME280;41452;42.780;23.116;2023-04-02T10:58:24;93586.44;;;13.28;59.49
55590;BME280;41452;42.780;23.116;2023-04-02T11:00:54;93563.28;;;13.25;57.54
55590;BME280;41452;42.780;23.116;2023-04-02T11:06:16;93594.63;;;13.27;59.29
55590;BME280;41452;42.780;23.116;2023-04-02T11:08:45;93594.88;;;13.30;59.01
55590;BME280;41452;42.780;23.116;2023-04-02T11:11:37;93592.81;;;13.22;54.54
55590;BME280;41452;42.780;23.116;2023-04-02T11:14:13;93597.56;;;13.41;57.07
55590;BME280;41452;42.780;23.116;2023-04-02T11:16:40;93592.25;;;13.61;55.55
55590;BME280;41452;42.780;23.116;2023-04-02T11:22:02;93580.34;;;13.79;54.52
55590;BME280;41452;42.780;23.116;2023-04-02T11:37:34;93579.50;;;13.89;52.20
55590;BME280;41452;42.780;23.116;2023-04-02T11:40:05;93576.59;;;13.91;52.91
55590;BME280;41452;42.780;23.116;2023-04-02T11:42:35;93571.88;;;13.82;51.55
55590;BME280;41452;42.780;23.116;2023-04-02T11:55:38;93551.00;;;13.91;50.63
55590;BME280;41452;42.780;23.116;2023-04-02T11:58:07;93561.75;;;14.05;51.77
55590;BME280;41452;42.780;23.116;2023-04-02T12:06:06;93559.34;;;14.14;47.72
55590;BME280;41452;42.780;23.116;2023-04-02T12:11:50;93561.47;;;14.12;50.07
55590;BME280;41452;42.780;23.116;2023-04-02T12:16:54;93522.91;;;13.56;49.55
55590;BME280;41452;42.780;23.116;2023-04-02T12:19:23;93558.94;;;13.86;50.25
55590;BME280;41452;42.780;23.116;2023-04-02T12:21:50;93563.16;;;13.87;50.30
55590;BME280;41452;42.780;23.116;2023-04-02T12:24:20;93560.19;;;14.04;51.87
55590;BME280;41452;42.780;23.116;2023-04-02T12:26:46;93560.41;;;14.18;50.72
55590;BME280;41452;42.780;23.116;2023-04-02T12:29:22;93553.28;;;14.13;50.59
55590;BME280;41452;42.780;23.116;2023-04-02T12:31:53;93550.38;;;14.15;50.26
55590;BME280;41452;42.780;23.116;2023-04-02T12:34:21;93554.00;;;14.29;48.76
55590;BME280;41452;42.780;23.116;2023-04-02T12:37:03;93542.38;;;14.30;49.41
55590;BME280;41452;42.780;23.116;2023-04-02T12:39:31;93543.47;;;14.24;49.19
55590;BME280;41452;42.780;23.116;2023-04-02T12:41:57;93544.25;;;14.24;47.11
55590;BME280;41452;42.780;23.116;2023-04-02T12:44:26;93541.81;;;14.33;47.20
55590;BME280;41452;42.780;23.116;2023-04-02T12:46:52;93514.44;;;14.19;48.26
55590;BME280;41452;42.780;23.116;2023-04-02T12:49:32;93546.78;;;14.45;46.16
55590;BME280;41452;42.780;23.116;2023-04-02T12:52:13;93538.22;;;14.14;42.83
55590;BME280;41452;42.780;23.116;2023-04-02T12:54:48;93540.75;;;14.39;45.46
55590;BME280;41452;42.780;23.116;2023-04-02T12:57:41;93497.53;;;14.20;45.69
55590;BME280;41452;42.780;23.116;2023-04-02T13:02:46;93541.72;;;14.54;44.88
55590;BME280;41452;42.780;23.116;2023-04-02T13:05:51;93498.97;;;14.47;46.17
55590;BME280;41452;42.780;23.116;2023-04-02T13:08:18;93533.13;;;14.77;44.20
55590;BME280;41452;42.780;23.116;2023-04-02T13:10:51;93529.56;;;14.58;46.27
55590;BME280;41452;42.780;23.116;2023-04-02T13:13:22;93531.13;;;14.64;44.78
55590;BME280;41452;42.780;23.116;2023-04-02T13:18:36;93533.09;;;14.82;46.35
55590;BME280;41452;42.780;23.116;2023-04-02T13:21:26;93535.16;;;14.91;48.18
55590;BME280;41452;42.780;23.116;2023-04-02T13:23:52;93536.66;;;14.97;46.38
55590;BME280;41452;42.780;23.116;2023-04-02T13:26:25;93522.50;;;14.82;46.63
55590;BME280;41452;42.780;23.116;2023-04-02T13:31:42;93530.50;;;14.72;46.98
55590;BME280;41452;42.780;23.116;2023-04-02T13:34:07;93533.16;;;14.72;46.87
55590;BME280;41452;42.780;23.116;2023-04-02T13:36:33;93537.34;;;14.78;46.08
55590;BME280;41452;42.780;23.116;2023-04-02T13:38:58;93503.94;;;14.53;46.64
55590;BME280;41452;42.780;23.116;2023-04-02T13:41:28;93505.78;;;14.58;45.01
55590;BME280;41452;42.780;23.116;2023-04-02T13:43:57;93523.44;;;14.68;45.72
55590;BME280;41452;42.780;23.116;2023-04-02T13:46:27;93527.41;;;14.60;45.49
55590;BME280;41452;42.780;23.116;2023-04-02T13:48:54;93515.81;;;14.61;47.28
55590;BME280;41452;42.780;23.116;2023-04-02T13:51:22;93528.34;;;14.79;48.77
55590;BME280;41452;42.780;23.116;2023-04-02T13:53:53;93527.06;;;14.77;46.14
55590;BME280;41452;42.780;23.116;2023-04-02T13:56:20;93520.44;;;14.74;45.29
55590;BME280;41452;42.780;23.116;2023-04-02T13:58:47;93507.84;;;14.66;45.32
55590;BME280;41452;42.780;23.116;2023-04-02T14:01:13;93516.47;;;14.77;45.26
55590;BME280;41452;42.780;23.116;2023-04-02T14:03:40;93524.50;;;14.56;43.64
55590;BME280;41452;42.780;23.116;2023-04-02T14:06:25;93510.75;;;14.64;46.16
55590;BME280;41452;42.780;23.116;2023-04-02T14:11:50;93512.59;;;14.69;45.09
55590;BME280;41452;42.780;23.116;2023-04-02T14:17:27;93500.91;;;14.75;47.13
55590;BME280;41452;42.780;23.116;2023-04-02T14:23:20;93479.38;;;14.48;42.37
55590;BME280;41452;42.780;23.116;2023-04-02T14:28:52;93503.09;;;14.63;41.88
55590;BME280;41452;42.780;23.116;2023-04-02T14:31:35;93500.19;;;14.64;40.96
55590;BME280;41452;42.780;23.116;2023-04-02T14:37:11;93499.94;;;14.61;44.76
55590;BME280;41452;42.780;23.116;2023-04-02T14:50:52;93504.00;;;14.43;44.67
55590;BME280;41452;42.780;23.116;2023-04-02T14:53:44;93518.03;;;14.38;43.23
55590;BME280;41452;42.780;23.116;2023-04-02T14:56:10;93467.50;;;14.11;42.25
55590;BME280;41452;42.780;23.116;2023-04-02T14:58:40;93481.97;;;14.18;42.56
55590;BME280;41452;42.780;23.116;2023-04-02T15:01:18;93507.44;;;14.43;43.42
55590;BME280;41452;42.780;23.116;2023-04-02T15:03:59;93512.72;;;14.43;42.81
55590;BME280;41452;42.780;23.116;2023-04-02T15:06:30;93495.88;;;14.34;40.96
55590;BME280;41452;42.780;23.116;2023-04-02T15:09:02;93518.75;;;14.49;41.31
55590;BME280;41452;42.780;23.116;2023-04-02T15:14:09;93517.97;;;14.49;42.66
55590;BME280;41452;42.780;23.116;2023-04-02T15:16:36;93519.63;;;14.39;41.66
55590;BME280;41452;42.780;23.116;2023-04-02T15:19:03;93509.13;;;14.24;41.66
55590;BME280;41452;42.780;23.116;2023-04-02T15:22:03;93525.47;;;14.26;41.49
55590;BME280;41452;42.780;23.116;2023-04-02T15:25:05;93526.00;;;14.28;42.09
55590;BME280;41452;42.780;23.116;2023-04-02T15:30:38;93521.31;;;14.20;41.63
55590;BME280;41452;42.780;23.116;2023-04-02T15:33:39;93527.91;;;14.17;40.44
55590;BME280;41452;42.780;23.116;2023-04-02T15:36:19;93529.00;;;14.11;42.19
55590;BME280;41452;42.780;23.116;2023-04-02T15:42:24;93520.13;;;13.86;42.55
55590;BME280;41452;42.780;23.116;2023-04-02T15:45:17;93524.31;;;13.93;41.94
55590;BME280;41452;42.780;23.116;2023-04-02T15:53:12;93523.34;;;13.73;42.98
55590;BME280;41452;42.780;23.116;2023-04-02T15:58:54;93527.88;;;13.62;44.56
55590;BME280;41452;42.780;23.116;2023-04-02T16:04:19;93544.28;;;13.49;43.62
55590;BME280;41452;42.780;23.116;2023-04-02T16:09:59;93535.84;;;13.37;43.04
55590;BME280;41452;42.780;23.116;2023-04-02T16:12:29;93540.59;;;13.29;43.81
55590;BME280;41452;42.780;23.116;2023-04-02T16:15:03;93540.34;;;13.21;44.00
55590;BME280;41452;42.780;23.116;2023-04-02T16:17:39;93517.69;;;13.09;44.47
55590;BME280;41452;42.780;23.116;2023-04-02T16:20:18;93544.28;;;13.23;44.03
55590;BME280;41452;42.780;23.116;2023-04-02T16:22:55;93545.59;;;13.21;44.83
55590;BME280;41452;42.780;23.116;2023-04-02T16:25:23;93529.78;;;13.05;45.19
55590;BME280;41452;42.780;23.116;2023-04-02T16:27:59;93545.88;;;13.19;45.02
55590;BME280;41452;42.780;23.116;2023-04-02T16:36:52;93553.50;;;13.21;46.42
55590;BME280;41452;42.780;23.116;2023-04-02T16:42:20;93555.09;;;13.11;46.52
55590;BME280;41452;42.780;23.116;2023-04-02T16:50:51;93568.81;;;12.98;49.11
55590;BME280;41452;42.780;23.116;2023-04-02T16:55:55;93568.56;;;12.79;50.11
55590;BME280;41452;42.780;23.116;2023-04-02T16:58:30;93570.09;;;12.65;51.08
55590;BME280;41452;42.780;23.116;2023-04-02T17:01:09;93570.63;;;12.57;51.36
55590;BME280;41452;42.780;23.116;2023-04-02T17:08:41;93574.75;;;12.27;51.90
55590;BME280;41452;42.780;23.116;2023-04-02T17:11:09;93582.38;;;12.18;52.06
55590;BME280;41452;42.780;23.116;2023-04-02T17:13:57;93582.31;;;12.03;52.39
55590;BME280;41452;42.780;23.116;2023-04-02T17:16:50;93584.84;;;11.82;52.95